Time;durP1;ratioP1;P1;durP2;ratioP2;P2;SDS_P1;SDS_P2;PMS_P1;PMS_P2;Temp;Humidity;BMP_temperature;BMP_pressure;BME280_temperature;BME280_humidity;BME280_pressure;Samples;Min_cycle;Max_cycle;Signal;HPM_P1;HPM_P2
2021/06/03 00:00:11;;;;;;;10.00;5.32;;;16.10;94.90;;;;;;5111557;28;20521;-77
2021/06/03 00:02:36;;;;;;;8.45;5.25;;;16.00;95.00;;;;;;5111718;28;20394;-76
2021/06/03 00:05:05;;;;;;;12.60;5.80;;;15.80;95.70;;;;;;5111886;28;20039;-76
2021/06/03 00:07:31;;;;;;;8.77;5.00;;;15.90;96.20;;;;;;5111203;28;20023;-73
2021/06/03 00:09:57;;;;;;;8.85;5.53;;;16.10;96.40;;;;;;5111094;28;20031;-76
2021/06/03 00:12:22;;;;;;;13.35;5.18;;;16.00;96.50;;;;;;5111564;28;20020;-75
2021/06/03 00:14:48;;;;;;;12.07;5.43;;;15.90;97.00;;;;;;5111952;28;20028;-76
2021/06/03 00:17:14;;;;;;;8.52;5.30;;;15.70;97.30;;;;;;5111285;28;20023;-73
2021/06/03 00:19:40;;;;;;;9.60;5.50;;;15.70;97.90;;;;;;5111154;28;20047;-75
2021/06/03 00:22:05;;;;;;;11.93;5.63;;;15.80;98.20;;;;;;5111333;28;20023;-74
2021/06/03 00:24:31;;;;;;;14.00;5.97;;;15.90;98.30;;;;;;5111703;28;20355;-75
2021/06/03 00:26:57;;;;;;;7.93;6.00;;;15.90;98.20;;;;;;5111103;28;20027;-73
2021/06/03 00:29:23;;;;;;;8.85;5.30;;;15.90;98.40;;;;;;5111540;28;20402;-81
2021/06/03 00:31:48;;;;;;;8.70;5.43;;;15.90;98.50;;;;;;5111430;28;20027;-75
2021/06/03 00:34:14;;;;;;;10.38;6.10;;;15.20;99.20;;;;;;5111353;28;20554;-81
2021/06/03 00:36:40;;;;;;;9.98;5.40;;;15.50;99.60;;;;;;5111184;28;20015;-74
2021/06/03 00:39:06;;;;;;;8.70;5.30;;;15.40;99.20;;;;;;5111277;28;20043;-73
2021/06/03 00:41:32;;;;;;;11.50;5.63;;;15.30;99.90;;;;;;5111019;28;20019;-80
2021/06/03 00:44:00;;;;;;;7.57;5.20;;;15.30;99.90;;;;;;5093281;28;20481;-76
2021/06/03 00:46:26;;;;;;;7.43;4.90;;;15.10;99.90;;;;;;5111117;28;20537;-76
2021/06/03 00:48:53;;;;;;;10.68;5.10;;;14.70;99.90;;;;;;5111301;28;20528;-81
2021/06/03 00:51:20;;;;;;;9.18;4.90;;;14.50;99.90;;;;;;5111386;28;20039;-73
2021/06/03 00:53:46;;;;;;;8.13;5.00;;;14.90;99.90;;;;;;5111102;28;20038;-76
2021/06/03 00:56:12;;;;;;;9.95;5.35;;;15.30;99.90;;;;;;5110699;28;20020;-76
2021/06/03 00:58:38;;;;;;;7.90;5.40;;;15.40;99.90;;;;;;5110807;28;20031;-75
2021/06/03 01:01:04;;;;;;;8.82;5.57;;;15.40;99.90;;;;;;5111113;28;20024;-75
2021/06/03 01:03:31;;;;;;;8.88;5.50;;;15.40;99.90;;;;;;5111085;28;20046;-75
2021/06/03 01:06:07;;;;;;;9.25;5.55;;;15.20;99.90;;;;;;5110576;28;20038;-75
2021/06/03 01:08:55;;;;;;;9.80;5.68;;;15.40;99.90;;;;;;5110658;28;20023;-75
2021/06/03 01:11:24;;;;;;;9.57;5.35;;;15.40;99.90;;;;;;5114686;28;20080;-74
2021/06/03 01:13:57;;;;;;;7.32;5.07;;;15.20;99.90;;;;;;5115082;28;20108;-75
2021/06/03 01:16:24;;;;;;;7.10;5.15;;;15.30;99.90;;;;;;5114753;28;20492;-75
2021/06/03 01:18:51;;;;;;;9.02;5.55;;;15.30;99.90;;;;;;5114697;28;20020;-76
2021/06/03 01:21:40;;;;;;;9.23;6.07;;;15.30;99.90;;;;;;5114763;28;20019;-75
2021/06/03 01:24:21;;;;;;;9.65;5.53;;;15.40;99.90;;;;;;5114300;28;20032;-75
2021/06/03 01:26:47;;;;;;;8.63;5.60;;;15.20;99.90;;;;;;5114440;28;20070;-75
2021/06/03 01:29:17;;;;;;;7.55;5.65;;;15.00;99.90;;;;;;5114953;28;20432;-74
2021/06/03 01:31:43;;;;;;;8.10;5.82;;;14.80;99.90;;;;;;5114431;28;20058;-75
2021/06/03 01:34:10;;;;;;;9.88;5.88;;;14.80;99.90;;;;;;5114586;28;20036;-74
2021/06/03 01:36:36;;;;;;;9.52;7.13;;;14.90;99.90;;;;;;5114634;28;20031;-74
2021/06/03 01:39:06;;;;;;;9.60;5.68;;;14.70;99.90;;;;;;5114611;28;20080;-76
2021/06/03 01:41:33;;;;;;;9.63;6.40;;;14.60;99.90;;;;;;5114090;28;20031;-74
2021/06/03 01:44:00;;;;;;;9.40;5.93;;;14.60;99.90;;;;;;5114692;28;20111;-73
2021/06/03 01:46:26;;;;;;;9.68;5.70;;;14.60;99.90;;;;;;5114030;28;20040;-76
2021/06/03 01:48:56;;;;;;;9.95;5.82;;;14.60;99.90;;;;;;5113846;28;20042;-76
2021/06/03 01:51:22;;;;;;;6.93;5.68;;;14.60;99.90;;;;;;5113907;28;20027;-76
2021/06/03 01:53:49;;;;;;;9.75;6.22;;;14.60;99.90;;;;;;5114268;28;20381;-76
2021/06/03 01:56:16;;;;;;;8.93;6.95;;;14.40;99.90;;;;;;5114054;28;20070;-80
2021/06/03 01:58:44;;;;;;;8.93;5.90;;;14.40;99.90;;;;;;5114412;28;20034;-73
2021/06/03 02:01:10;;;;;;;7.22;5.45;;;14.50;99.90;;;;;;5113846;28;20077;-74
2021/06/03 02:03:36;;;;;;;9.00;5.65;;;14.60;99.90;;;;;;5113749;28;20027;-76
2021/06/03 02:06:04;;;;;;;9.02;5.70;;;14.40;99.90;;;;;;5113644;28;20102;-76
2021/06/03 02:08:30;;;;;;;10.10;5.97;;;14.40;99.90;;;;;;5113565;28;20027;-79
2021/06/03 02:10:56;;;;;;;7.80;6.15;;;14.30;99.90;;;;;;5113836;28;20024;-75
2021/06/03 02:13:39;;;;;;;8.43;6.10;;;14.30;99.90;;;;;;5114258;28;20024;-76
2021/06/03 02:16:35;;;;;;;9.80;6.13;;;14.30;99.90;;;;;;5108406;28;20149;-77
2021/06/03 02:19:22;;;;;;;10.05;6.18;;;14.40;99.90;;;;;;5112154;28;20076;-77
2021/06/03 02:21:49;;;;;;;8.95;5.88;;;14.40;99.90;;;;;;5112181;28;20024;-76
2021/06/03 02:24:15;;;;;;;10.63;5.85;;;14.30;99.90;;;;;;5113767;28;20019;-75
2021/06/03 02:26:43;;;;;;;7.38;5.75;;;14.20;99.90;;;;;;5113432;28;20059;-76
2021/06/03 02:29:09;;;;;;;7.45;5.90;;;14.10;99.90;;;;;;5113588;28;20367;-75
2021/06/03 02:31:36;;;;;;;8.10;6.00;;;14.20;99.90;;;;;;5113471;28;20040;-75
2021/06/03 02:34:04;;;;;;;8.60;6.22;;;14.00;99.90;;;;;;5113517;28;20030;-76
2021/06/03 02:36:30;;;;;;;9.35;5.80;;;14.00;99.90;;;;;;5112527;28;20031;-75
2021/06/03 02:38:57;;;;;;;14.13;6.30;;;14.10;99.90;;;;;;5113508;28;20032;-73
2021/06/03 02:41:23;;;;;;;8.38;5.53;;;14.20;99.90;;;;;;5113131;28;20047;-74
2021/06/03 02:43:50;;;;;;;8.57;5.88;;;14.00;99.90;;;;;;5113496;28;20367;-76
2021/06/03 02:46:20;;;;;;;7.43;5.47;;;13.90;99.90;;;;;;5113189;28;20490;-75
2021/06/03 02:48:46;;;;;;;9.35;6.13;;;13.90;99.90;;;;;;5113608;28;20039;-77
2021/06/03 02:51:13;;;;;;;8.93;7.13;;;13.90;99.90;;;;;;5113212;28;20024;-76
2021/06/03 02:53:39;;;;;;;9.68;6.50;;;13.90;99.90;;;;;;5113261;28;20092;-78
2021/06/03 02:56:06;;;;;;;7.50;5.93;;;14.00;99.90;;;;;;5095087;28;20523;-74
2021/06/03 02:58:32;;;;;;;9.27;5.93;;;13.90;99.90;;;;;;5113075;28;20054;-74
2021/06/03 03:00:59;;;;;;;8.77;6.13;;;13.90;99.90;;;;;;5113165;28;20501;-74
2021/06/03 03:03:25;;;;;;;12.88;6.32;;;13.80;99.90;;;;;;5112773;28;20102;-75
2021/06/03 03:05:51;;;;;;;9.20;6.20;;;13.70;99.90;;;;;;5094510;28;20493;-73
2021/06/03 03:08:18;;;;;;;10.15;6.05;;;13.70;99.90;;;;;;5112366;28;20023;-74
2021/06/03 03:10:50;;;;;;;10.15;5.90;;;13.80;99.90;;;;;;5113061;28;20038;-75
2021/06/03 03:13:17;;;;;;;14.05;8.23;;;13.70;99.90;;;;;;5112381;28;20342;-76
2021/06/03 03:15:44;;;;;;;12.55;6.55;;;13.70;99.90;;;;;;5112945;28;20030;-75
2021/06/03 03:18:10;;;;;;;8.50;6.93;;;13.30;99.90;;;;;;5112069;28;20036;-74
2021/06/03 03:20:37;;;;;;;8.77;6.13;;;13.30;99.90;;;;;;5112667;28;20039;-76
2021/06/03 03:23:05;;;;;;;11.95;7.38;;;13.50;99.90;;;;;;5112578;28;20024;-75
2021/06/03 03:25:32;;;;;;;10.38;7.13;;;13.50;99.90;;;;;;5113479;28;20034;-81
2021/06/03 03:27:58;;;;;;;11.38;6.97;;;13.50;99.90;;;;;;5112336;28;20020;-74
2021/06/03 03:30:26;;;;;;;10.13;7.50;;;13.60;99.90;;;;;;5112656;28;20386;-78
2021/06/03 03:32:52;;;;;;;10.50;7.70;;;13.60;99.90;;;;;;5094179;28;20031;-78
2021/06/03 03:35:18;;;;;;;15.80;8.60;;;13.60;99.90;;;;;;5112317;28;20024;-76
2021/06/03 03:37:45;;;;;;;12.43;7.30;;;13.70;99.90;;;;;;5112429;28;20024;-76
2021/06/03 03:40:16;;;;;;;14.35;8.48;;;13.70;99.90;;;;;;5112102;28;20478;-81
2021/06/03 03:42:42;;;;;;;11.73;8.00;;;13.80;99.90;;;;;;5112416;28;20042;-77
2021/06/03 03:45:11;;;;;;;15.10;8.18;;;13.80;99.90;;;;;;5112290;28;20035;-81
2021/06/03 03:47:37;;;;;;;12.77;8.15;;;13.80;99.90;;;;;;5112228;28;20059;-77
2021/06/03 03:50:05;;;;;;;12.18;7.00;;;13.80;99.90;;;;;;5112115;28;20135;-82
2021/06/03 03:52:31;;;;;;;18.65;7.53;;;13.60;99.90;;;;;;5112207;28;20113;-78
2021/06/03 03:54:57;;;;;;;14.57;8.18;;;13.70;99.90;;;;;;5112794;28;20037;-77
2021/06/03 03:57:24;;;;;;;8.95;6.82;;;13.70;99.90;;;;;;5112464;28;20047;-78
2021/06/03 03:59:50;;;;;;;10.38;7.07;;;13.70;99.90;;;;;;5113180;28;20032;-78
2021/06/03 04:02:16;;;;;;;11.82;7.18;;;13.80;99.90;;;;;;5111713;28;20027;-78
2021/06/03 04:04:42;;;;;;;11.00;7.20;;;13.90;99.90;;;;;;5111982;28;20035;-76
2021/06/03 04:07:08;;;;;;;10.82;7.75;;;13.90;99.90;;;;;;5112412;28;20030;-76
2021/06/03 04:09:34;;;;;;;11.48;7.75;;;13.80;99.90;;;;;;5112139;28;20028;-78
2021/06/03 04:12:00;;;;;;;11.35;7.53;;;13.80;99.90;;;;;;5112589;28;20028;-74
2021/06/03 04:14:26;;;;;;;12.18;7.18;;;13.80;99.90;;;;;;5094315;28;20461;-75
2021/06/03 04:16:52;;;;;;;10.52;6.95;;;13.70;99.90;;;;;;5111929;28;20028;-76
2021/06/03 04:19:19;;;;;;;12.55;7.93;;;13.80;99.90;;;;;;5111604;28;20382;-76
2021/06/03 04:21:45;;;;;;;12.45;7.53;;;13.80;99.90;;;;;;5111568;28;20100;-78
2021/06/03 04:24:11;;;;;;;10.77;7.53;;;13.70;99.90;;;;;;5111789;28;20110;-76
2021/06/03 04:26:36;;;;;;;12.57;7.30;;;13.40;99.90;;;;;;5111950;28;20020;-76
2021/06/03 04:29:04;;;;;;;10.43;7.20;;;13.50;99.90;;;;;;5111656;28;20083;-75
2021/06/03 04:31:30;;;;;;;9.55;6.97;;;13.50;99.90;;;;;;5111835;28;20039;-75
2021/06/03 04:33:56;;;;;;;11.40;7.18;;;13.60;99.90;;;;;;5111507;28;20088;-76
2021/06/03 04:36:21;;;;;;;16.58;9.50;;;13.70;99.90;;;;;;5111419;28;20024;-74
2021/06/03 04:38:47;;;;;;;11.65;7.85;;;13.90;99.90;;;;;;5111720;28;20076;-76
2021/06/03 04:41:13;;;;;;;15.82;8.25;;;13.80;99.90;;;;;;5111613;28;20024;-75
2021/06/03 04:43:39;;;;;;;14.82;8.43;;;13.90;99.90;;;;;;5110981;28;20040;-73
2021/06/03 04:46:05;;;;;;;11.70;7.68;;;13.70;99.90;;;;;;5115438;28;20147;-75
2021/06/03 04:48:31;;;;;;;14.90;8.25;;;13.80;99.90;;;;;;5115445;28;20020;-77
2021/06/03 04:50:57;;;;;;;12.77;8.07;;;13.80;99.90;;;;;;5115802;28;20030;-76
2021/06/03 04:53:23;;;;;;;12.60;7.38;;;14.00;99.90;;;;;;5115524;28;20020;-76
2021/06/03 04:55:48;;;;;;;11.68;8.00;;;13.80;99.90;;;;;;5115235;28;20028;-80
2021/06/03 04:58:14;;;;;;;56.13;36.03;;;13.80;99.90;;;;;;5115431;28;20024;-75
2021/06/03 05:00:42;;;;;;;32.33;20.38;;;13.90;99.90;;;;;;5115301;28;20490;-77
2021/06/03 05:03:09;;;;;;;24.17;13.93;;;14.20;99.90;;;;;;5116098;28;20072;-78
2021/06/03 05:05:37;;;;;;;15.10;9.38;;;14.20;99.90;;;;;;5115994;28;20483;-76
2021/06/03 05:08:03;;;;;;;19.55;8.60;;;14.10;99.90;;;;;;5115693;28;20019;-73
2021/06/03 05:10:29;;;;;;;10.38;7.35;;;14.10;99.90;;;;;;5115656;28;20039;-78
2021/06/03 05:12:57;;;;;;;12.07;7.53;;;14.20;99.90;;;;;;5115961;28;20371;-82
2021/06/03 05:15:24;;;;;;;11.90;7.60;;;14.30;99.90;;;;;;5115287;28;20126;-83
2021/06/03 05:17:54;;;;;;;13.18;9.45;;;14.30;99.90;;;;;;5115616;28;20024;-76
2021/06/03 05:20:22;;;;;;;12.02;8.20;;;14.30;99.90;;;;;;5115459;28;20427;-79
2021/06/03 05:22:50;;;;;;;11.65;7.28;;;14.40;99.90;;;;;;5114973;28;20028;-75
2021/06/03 05:25:18;;;;;;;12.63;6.30;;;14.40;99.90;;;;;;5115068;28;20068;-74
2021/06/03 05:27:44;;;;;;;9.57;5.78;;;14.40;99.90;;;;;;5115064;28;20099;-84
2021/06/03 05:30:12;;;;;;;74.93;47.50;;;14.20;99.90;;;;;;5114537;28;20036;-78
2021/06/03 05:32:38;;;;;;;51.65;32.92;;;14.60;99.90;;;;;;5114509;28;20417;-77
2021/06/03 05:35:06;;;;;;;84.90;49.83;;;14.80;99.90;;;;;;5114510;28;20474;-78
2021/06/03 05:37:32;;;;;;;52.58;35.95;;;15.30;99.90;;;;;;5114145;28;20020;-79
2021/06/03 05:39:58;;;;;;;41.88;27.83;;;15.30;99.90;;;;;;5114973;28;20031;-79
2021/06/03 05:42:24;;;;;;;13.52;10.13;;;15.40;99.90;;;;;;5115041;28;20479;-77
2021/06/03 05:44:50;;;;;;;10.75;7.60;;;15.20;99.90;;;;;;5114295;28;20390;-75
2021/06/03 05:47:15;;;;;;;10.63;6.07;;;15.20;99.90;;;;;;5115185;28;20394;-78
2021/06/03 05:49:41;;;;;;;10.82;6.07;;;15.30;99.90;;;;;;5115855;28;20351;-79
2021/06/03 05:52:07;;;;;;;7.82;5.72;;;15.20;99.90;;;;;;5116628;28;20027;-79
2021/06/03 05:54:33;;;;;;;11.40;6.60;;;15.30;99.90;;;;;;5114863;28;20027;-88
2021/06/03 05:56:59;;;;;;;9.80;6.38;;;15.50;99.90;;;;;;5115101;28;20027;-82
2021/06/03 05:59:26;;;;;;;10.52;6.15;;;15.60;99.90;;;;;;5114653;28;20099;-82
2021/06/03 06:01:58;;;;;;;10.57;6.25;;;15.60;99.90;;;;;;5114885;28;20031;-73
2021/06/03 06:06:49;;;;;;;8.68;5.93;;;15.80;99.90;;;;;;5104812;27;20443;-76
2021/06/03 06:09:16;;;;;;;9.32;6.15;;;15.80;99.90;;;;;;5111143;27;20032;-77
2021/06/03 06:11:44;;;;;;;12.88;5.85;;;15.90;99.90;;;;;;5135095;27;20328;-75
2021/06/03 06:14:10;;;;;;;9.52;5.30;;;16.00;99.90;;;;;;5117423;27;20450;-74
2021/06/03 06:16:37;;;;;;;9.63;6.10;;;16.20;99.90;;;;;;5095637;28;20027;-75
2021/06/03 06:19:05;;;;;;;9.55;6.28;;;16.20;99.90;;;;;;5095624;28;20024;-77
2021/06/03 06:21:31;;;;;;;11.75;6.05;;;16.30;99.90;;;;;;5113191;28;20019;-77
2021/06/03 06:23:57;;;;;;;13.00;7.07;;;16.20;99.90;;;;;;5113604;28;20019;-78
2021/06/03 06:26:25;;;;;;;9.80;5.75;;;16.30;99.90;;;;;;5114153;28;20019;-78
2021/06/03 06:28:52;;;;;;;11.68;5.65;;;16.20;99.90;;;;;;5113819;28;20070;-73
2021/06/03 06:31:19;;;;;;;9.10;5.72;;;16.00;99.90;;;;;;5113362;28;20071;-79
2021/06/03 06:33:46;;;;;;;8.45;5.53;;;16.00;99.90;;;;;;5114436;28;20351;-77
2021/06/03 06:36:12;;;;;;;8.07;5.32;;;16.10;99.90;;;;;;5113184;28;20348;-77
2021/06/03 06:38:40;;;;;;;10.43;5.90;;;16.20;99.90;;;;;;5113985;28;20034;-94
2021/06/03 06:41:08;;;;;;;9.52;5.28;;;16.30;99.90;;;;;;5090528;28;20485;-79
2021/06/03 06:43:35;;;;;;;7.88;5.50;;;16.50;99.90;;;;;;5112451;28;20061;-77
2021/06/03 06:46:02;;;;;;;9.98;5.35;;;16.60;99.90;;;;;;5113982;28;20055;-75
2021/06/03 06:48:28;;;;;;;13.05;5.40;;;16.50;99.90;;;;;;5114139;28;20027;-86
2021/06/03 06:50:54;;;;;;;9.73;5.80;;;16.50;99.90;;;;;;5112934;28;20028;-76
2021/06/03 06:53:21;;;;;;;11.45;5.70;;;16.60;99.90;;;;;;5114235;28;20031;-84
2021/06/03 06:55:50;;;;;;;9.90;5.30;;;16.70;99.90;;;;;;5114772;28;20027;-86
2021/06/03 06:58:15;;;;;;;8.30;5.43;;;16.80;99.90;;;;;;5095422;28;20080;-92
2021/06/03 07:00:44;;;;;;;9.13;5.55;;;16.90;99.90;;;;;;5113290;28;20031;-75
2021/06/03 07:03:10;;;;;;;10.13;6.05;;;17.10;99.90;;;;;;5113306;28;20042;-84
2021/06/03 07:05:39;;;;;;;14.90;5.93;;;17.20;99.90;;;;;;5112757;28;20036;-75
2021/06/03 07:08:05;;;;;;;12.18;6.00;;;17.20;99.90;;;;;;5093499;28;20022;-74
2021/06/03 07:10:31;;;;;;;10.48;5.50;;;17.30;99.90;;;;;;5112919;28;20028;-74
2021/06/03 07:12:57;;;;;;;10.15;5.60;;;17.40;99.90;;;;;;5111914;28;20022;-74
2021/06/03 07:15:23;;;;;;;9.07;5.63;;;17.50;99.90;;;;;;5113137;28;20375;-74
2021/06/03 07:17:49;;;;;;;9.95;6.10;;;17.50;99.90;;;;;;5111697;28;20081;-75
2021/06/03 07:20:19;;;;;;;8.25;5.15;;;17.60;99.80;;;;;;5112783;28;20023;-76
2021/06/03 07:22:49;;;;;;;10.65;5.70;;;17.70;99.90;;;;;;5093321;28;20486;-80
2021/06/03 07:25:17;;;;;;;13.05;5.82;;;17.70;98.90;;;;;;5112418;28;20024;-73
2021/06/03 07:27:43;;;;;;;10.68;5.90;;;17.80;99.10;;;;;;5110201;28;20057;-77
2021/06/03 07:30:11;;;;;;;9.70;5.43;;;17.90;99.00;;;;;;5111964;28;20040;-76
2021/06/03 07:32:37;;;;;;;8.23;5.43;;;17.90;98.80;;;;;;5110684;28;20442;-79
2021/06/03 07:35:09;;;;;;;11.82;5.63;;;18.00;98.40;;;;;;5110677;28;20530;-74
2021/06/03 07:37:35;;;;;;;10.80;5.30;;;18.20;98.50;;;;;;5108286;28;20051;-81
2021/06/03 07:40:01;;;;;;;11.85;5.65;;;18.30;98.20;;;;;;5110790;28;20079;-77
2021/06/03 07:42:27;;;;;;;11.43;6.75;;;18.40;98.30;;;;;;5110695;28;20015;-74
2021/06/03 07:44:53;;;;;;;13.88;6.30;;;18.40;98.00;;;;;;5110956;28;20375;-81
2021/06/03 07:47:18;;;;;;;8.77;5.03;;;18.30;97.90;;;;;;5110537;28;20042;-88
2021/06/03 07:49:44;;;;;;;10.40;5.50;;;18.30;97.50;;;;;;5111559;28;20028;-84
2021/06/03 07:52:10;;;;;;;9.65;5.18;;;18.40;97.60;;;;;;5110132;27;20028;-89
2021/06/03 07:54:36;;;;;;;9.40;4.53;;;18.50;97.20;;;;;;5114689;28;20763;-79
2021/06/03 07:57:03;;;;;;;10.00;4.90;;;18.60;96.80;;;;;;5111137;28;20018;-82
2021/06/03 07:59:30;;;;;;;8.43;4.93;;;18.80;96.80;;;;;;5110956;28;20027;-73
2021/06/03 08:01:58;;;;;;;11.00;5.13;;;18.90;96.50;;;;;;5090502;28;20462;-75
2021/06/03 08:04:24;;;;;;;8.23;4.82;;;19.10;95.90;;;;;;5110731;28;20027;-75
2021/06/03 08:06:52;;;;;;;10.43;5.30;;;19.20;95.70;;;;;;5110015;28;20517;-74
2021/06/03 08:09:18;;;;;;;10.65;5.30;;;19.30;95.20;;;;;;5108223;28;20046;-75
2021/06/03 08:11:46;;;;;;;11.77;4.80;;;19.30;95.00;;;;;;5107832;28;20027;-76
2021/06/03 08:14:15;;;;;;;8.52;4.50;;;19.30;94.00;;;;;;5091402;28;20050;-75
2021/06/03 08:16:41;;;;;;;10.85;4.90;;;19.40;93.70;;;;;;5092352;28;20055;-75
2021/06/03 08:19:06;;;;;;;9.38;4.80;;;19.40;93.20;;;;;;5092315;28;20047;-75
2021/06/03 08:21:36;;;;;;;10.02;5.00;;;19.30;93.00;;;;;;5110177;28;20028;-73
2021/06/03 08:24:03;;;;;;;10.52;4.60;;;19.40;92.90;;;;;;5111482;28;20027;-74
2021/06/03 08:26:30;;;;;;;9.02;4.95;;;19.50;92.60;;;;;;5082422;28;20202;-74
2021/06/03 08:28:57;;;;;;;14.60;5.35;;;19.70;92.80;;;;;;5108741;28;20024;-74
2021/06/03 08:31:23;;;;;;;9.13;4.38;;;20.00;91.60;;;;;;5110705;28;20478;-74
2021/06/03 08:33:49;;;;;;;7.03;4.72;;;20.00;91.00;;;;;;5093780;28;20023;-72
2021/06/03 08:36:15;;;;;;;11.13;4.60;;;20.10;90.80;;;;;;5112361;28;20043;-79
2021/06/03 08:38:41;;;;;;;9.95;4.10;;;20.20;90.90;;;;;;5111965;28;20024;-77
2021/06/03 08:41:07;;;;;;;10.07;4.60;;;20.20;90.30;;;;;;5111610;28;20556;-86
2021/06/03 08:43:34;;;;;;;9.25;3.95;;;20.30;90.10;;;;;;5111670;28;20034;-78
2021/06/03 08:46:02;;;;;;;5.95;3.60;;;20.10;87.50;;;;;;5112147;28;20051;-76
2021/06/03 08:48:29;;;;;;;5.93;3.72;;;20.20;85.90;;;;;;5094878;28;20043;-79
2021/06/03 08:51:04;;;;;;;6.90;3.63;;;20.30;81.80;;;;;;5098248;28;20027;-76
2021/06/03 08:53:31;;;;;;;8.25;3.78;;;20.30;81.40;;;;;;5096838;28;20420;-79
2021/06/03 08:58:51;;;;;;;7.88;3.88;;;20.60;81.00;;;;;;5091707;28;20035;-78
2021/06/03 09:01:17;;;;;;;10.85;6.30;;;20.70;82.70;;;;;;5090321;28;20028;-76
2021/06/03 09:03:44;;;;;;;16.23;7.28;;;20.90;85.10;;;;;;5088776;28;20020;-77
2021/06/03 09:06:13;;;;;;;17.05;5.15;;;21.20;85.10;;;;;;5096443;28;20110;-74
2021/06/03 09:08:41;;;;;;;8.85;4.72;;;21.60;79.40;;;;;;5092585;28;20043;-78
2021/06/03 09:11:16;;;;;;;12.30;6.60;;;21.60;77.20;;;;;;5090374;28;20024;-78
2021/06/03 09:13:54;;;;;;;13.10;5.53;;;22.00;79.20;;;;;;5091758;28;20111;-87
2021/06/03 09:16:28;;;;;;;6.63;4.47;;;22.00;75.10;;;;;;5107706;28;20078;-72
2021/06/03 09:18:57;;;;;;;10.13;5.30;;;22.20;72.50;;;;;;5110287;28;20023;-80
2021/06/03 09:21:30;;;;;;;7.55;3.95;;;22.50;73.00;;;;;;5110417;28;20024;-75
2021/06/03 09:24:01;;;;;;;8.77;4.63;;;22.70;70.00;;;;;;5110980;28;20126;-76
2021/06/03 09:26:33;;;;;;;8.02;3.67;;;22.60;69.30;;;;;;5110016;28;20364;-74
2021/06/03 09:29:00;;;;;;;8.75;4.30;;;22.80;66.50;;;;;;5109551;28;20760;-80
2021/06/03 09:31:36;;;;;;;9.80;4.07;;;22.80;67.40;;;;;;5113165;28;20070;-77
2021/06/03 09:34:04;;;;;;;9.05;3.90;;;22.80;67.20;;;;;;5094863;28;20016;-76
2021/06/03 09:36:35;;;;;;;8.40;3.72;;;23.00;66.50;;;;;;5112710;28;20081;-74
2021/06/03 09:39:04;;;;;;;;;;;23.10;66.00;;;;;;5113933;28;20015;-73
2021/06/03 09:41:31;;;;;;;6.07;4.07;;;22.60;63.00;;;;;;5112952;28;20644;-76
2021/06/03 09:44:10;;;;;;;10.00;3.90;;;22.20;63.20;;;;;;5095025;28;20081;-74
2021/06/03 09:46:38;;;;;;;12.77;4.10;;;22.50;64.50;;;;;;5093520;28;20070;-79
2021/06/03 09:49:05;;;;;;;7.55;3.70;;;23.00;64.60;;;;;;5109566;28;20034;-78
2021/06/03 09:51:36;;;;;;;6.82;4.25;;;23.30;64.10;;;;;;5112350;28;20027;-75
2021/06/03 09:54:11;;;;;;;7.63;3.50;;;23.50;62.30;;;;;;5112660;28;20016;-75
2021/06/03 09:56:47;;;;;;;9.13;3.55;;;23.70;62.00;;;;;;5112820;28;20031;-75
2021/06/03 09:59:19;;;;;;;6.32;3.58;;;23.70;62.20;;;;;;5111368;28;20059;-84
2021/06/03 10:01:52;;;;;;;9.23;3.83;;;23.60;60.70;;;;;;5109811;28;20034;-79
2021/06/03 10:04:33;;;;;;;7.40;3.90;;;23.70;61.80;;;;;;5112434;28;20399;-73
2021/06/03 10:07:04;;;;;;;11.07;4.55;;;24.10;61.50;;;;;;5093091;28;20186;-76
2021/06/03 10:09:39;;;;;;;6.45;3.90;;;24.10;60.30;;;;;;5094662;28;20406;-79
2021/06/03 10:12:06;;;;;;;7.97;3.60;;;23.80;60.70;;;;;;5110063;28;20036;-80
2021/06/03 10:14:33;;;;;;;5.35;2.97;;;23.10;60.70;;;;;;5113329;28;20344;-82
2021/06/03 10:17:16;;;;;;;11.00;3.70;;;22.70;61.40;;;;;;5111568;28;20092;-81
2021/06/03 10:19:42;;;;;;;8.35;3.42;;;22.70;61.50;;;;;;5112005;28;20044;-81
2021/06/03 10:22:09;;;;;;;8.98;3.20;;;22.90;61.80;;;;;;5112785;28;20019;-80
2021/06/03 10:24:49;;;;;;;7.38;3.50;;;23.20;61.10;;;;;;5112511;28;20020;-76
2021/06/03 10:27:15;;;;;;;5.60;3.15;;;22.60;61.40;;;;;;5110584;28;20077;-78
2021/06/03 10:29:41;;;;;;;7.88;3.45;;;22.60;61.00;;;;;;5099899;28;20084;-73
2021/06/03 10:32:21;;;;;;;8.10;2.90;;;22.90;61.00;;;;;;5109065;28;20031;-73
2021/06/03 10:34:50;;;;;;;8.37;3.70;;;22.50;60.80;;;;;;5090602;28;20016;-81
2021/06/03 10:37:17;;;;;;;6.55;3.03;;;23.10;61.70;;;;;;5094108;28;20041;-76
2021/06/03 10:39:45;;;;;;;6.45;3.00;;;23.70;60.20;;;;;;5094668;28;20364;-74
2021/06/03 10:42:13;;;;;;;9.90;3.45;;;22.90;58.70;;;;;;5093701;28;20031;-79
2021/06/03 10:44:41;;;;;;;9.00;3.10;;;23.10;61.20;;;;;;5090362;28;20107;-73
2021/06/03 10:47:09;;;;;;;9.65;3.22;;;23.60;59.80;;;;;;5112137;28;20027;-76
2021/06/03 10:50:06;;;;;;;5.75;2.88;;;23.90;58.80;;;;;;5111787;28;20030;-77
2021/06/03 10:52:32;;;;;;;11.68;3.47;;;23.90;57.20;;;;;;5099257;28;20027;-74
2021/06/03 10:54:59;;;;;;;6.18;3.10;;;24.30;58.30;;;;;;5094276;28;20110;-84
2021/06/03 10:57:45;;;;;;;8.70;3.10;;;24.40;57.80;;;;;;5113261;28;20011;-83
2021/06/03 11:00:41;;;;;;;7.32;2.95;;;24.60;57.50;;;;;;5113111;28;20122;-85
2021/06/03 11:03:22;;;;;;;7.80;3.63;;;24.90;56.80;;;;;;5071804;28;20437;-81
2021/06/03 11:06:03;;;;;;;7.55;3.50;;;24.90;56.10;;;;;;5111620;28;20023;-75
2021/06/03 11:08:33;;;;;;;6.75;3.40;;;25.00;55.80;;;;;;5110828;28;20041;-77
2021/06/03 11:11:11;;;;;;;5.95;3.22;;;25.00;56.30;;;;;;5112026;28;20086;-79
2021/06/03 11:13:37;;;;;;;6.40;2.90;;;25.10;56.10;;;;;;5112329;28;20030;-81
2021/06/03 11:16:26;;;;;;;7.53;3.35;;;24.80;53.90;;;;;;5112628;28;20028;-82
2021/06/03 11:18:57;;;;;;;8.07;3.10;;;24.60;54.50;;;;;;5111556;28;20016;-82
2021/06/03 11:21:32;;;;;;;9.95;3.53;;;24.90;55.00;;;;;;5109725;28;20028;-83
2021/06/03 11:24:11;;;;;;;5.75;3.00;;;25.00;54.70;;;;;;5109783;28;20027;-77
2021/06/03 11:26:46;;;;;;;6.85;3.67;;;25.40;54.30;;;;;;5111007;28;20058;-78
2021/06/03 11:29:20;;;;;;;5.78;3.17;;;25.60;54.40;;;;;;5091897;28;20032;-79
2021/06/03 11:32:14;;;;;;;8.70;3.58;;;25.60;53.90;;;;;;5110607;28;20027;-78
2021/06/03 11:34:42;;;;;;;5.07;2.92;;;25.60;53.90;;;;;;5111041;28;20117;-85
2021/06/03 11:37:21;;;;;;;6.90;3.15;;;25.70;53.90;;;;;;5111623;28;20068;-78
2021/06/03 11:39:53;;;;;;;6.60;3.50;;;25.90;53.90;;;;;;5109403;28;20658;-76
2021/06/03 11:42:25;;;;;;;9.15;3.30;;;25.90;54.00;;;;;;5111727;28;20023;-74
2021/06/03 11:45:20;;;;;;;6.05;2.90;;;25.90;54.00;;;;;;5110771;28;20425;-79
2021/06/03 11:47:46;;;;;;;4.63;2.97;;;25.90;53.80;;;;;;5111365;28;20109;-79
2021/06/03 11:50:11;;;;;;;6.43;3.13;;;26.10;52.30;;;;;;5111243;28;20035;-80
2021/06/03 11:52:37;;;;;;;5.90;3.20;;;25.80;52.70;;;;;;5093175;28;20027;-77
2021/06/03 11:55:08;;;;;;;7.00;3.28;;;25.90;53.60;;;;;;5112534;28;20023;-78
2021/06/03 11:57:38;;;;;;;18.05;3.65;;;25.90;52.90;;;;;;5112282;28;20015;-79
2021/06/03 12:00:11;;;;;;;8.25;3.42;;;26.20;53.20;;;;;;5111829;28;20118;-82
2021/06/03 12:02:39;;;;;;;5.75;3.47;;;26.20;52.80;;;;;;5111401;28;20031;-78
2021/06/03 12:05:11;;;;;;;9.40;3.60;;;26.10;52.60;;;;;;5113066;28;20019;-81
2021/06/03 12:07:47;;;;;;;7.65;3.25;;;25.10;52.20;;;;;;5113642;28;20051;-75
2021/06/03 12:10:16;;;;;;;5.75;3.42;;;25.30;52.40;;;;;;5111661;28;20035;-75
2021/06/03 12:12:42;;;;;;;4.93;2.65;;;25.90;53.90;;;;;;5112234;28;20407;-79
2021/06/03 12:15:27;;;;;;;6.18;3.20;;;26.30;52.60;;;;;;5112266;28;20032;-82
2021/06/03 12:17:55;;;;;;;5.43;3.13;;;26.60;52.30;;;;;;5093646;28;20030;-76
2021/06/03 12:20:22;;;;;;;10.77;3.28;;;26.70;51.30;;;;;;5111803;28;20019;-80
2021/06/03 12:22:48;;;;;;;6.53;3.22;;;26.20;50.90;;;;;;5113023;28;20041;-84
2021/06/03 12:25:15;;;;;;;6.88;3.25;;;26.20;51.50;;;;;;5113112;28;20079;-83
2021/06/03 12:27:46;;;;;;;7.88;3.30;;;26.50;51.70;;;;;;5094793;28;20016;-84
2021/06/03 12:30:22;;;;;;;6.82;2.78;;;26.40;51.60;;;;;;5108661;28;20035;-81
2021/06/03 12:33:00;;;;;;;6.72;3.53;;;26.40;50.60;;;;;;5107542;28;20019;-79
2021/06/03 12:35:34;;;;;;;8.43;3.40;;;26.60;50.80;;;;;;5092461;28;20051;-76
2021/06/03 12:38:03;;;;;;;7.18;3.38;;;26.90;51.10;;;;;;5110326;28;20023;-77
2021/06/03 12:40:31;;;;;;;7.15;2.85;;;27.10;50.50;;;;;;5109828;28;20068;-78
2021/06/03 12:43:10;;;;;;;7.20;4.13;;;26.90;49.40;;;;;;5109592;28;20367;-78
2021/06/03 12:45:40;;;;;;;12.00;2.97;;;27.00;49.30;;;;;;5107263;28;20139;-80
2021/06/03 12:48:07;;;;;;;6.00;2.63;;;26.90;48.90;;;;;;5110222;28;20065;-83
2021/06/03 12:50:47;;;;;;;8.32;3.42;;;27.10;48.60;;;;;;5110083;28;20778;-80
2021/06/03 12:53:20;;;;;;;6.95;3.33;;;27.30;48.80;;;;;;5110007;28;20334;-76
2021/06/03 12:55:47;;;;;;;13.18;3.53;;;27.50;48.20;;;;;;5109532;28;20031;-79